Raleigh, North Dakota
Current Conditions -  °F | °C
As of 2:35 AM on Friday 28 Nov 2014 (Local Time) from KY19 Reporting Station
Overcast Overcast  
Wind Chill: -20°   Ceiling: 200
Heat Index: -13°   Visibility: 10mi
Dew Point: -14°   Wind: 9mph
Humidity: 92%   Direction: 90°E
Pressure: 29.82"   Gusts: NA
Location:  46.36°N, 101.31°W
Report Text: KY19 280935Z AUTO 09008KT 10SM BKN002 BKN065 OVC080 M13/M14 A2982 RMK AO2
Loading
Personal Weather Stations






























Interactive Weather Map New forecast layout! Learn more

10-Day Weather Forecast

Advertisements
Track Severe Weather on mobile